This is the latest recevied weather packets stored in our database for station/object E22ZMG-3. If no packets are shown the sender has not sent any weather packets the latest 10 day(s).
| Time | Temp. | Humidity | Pressure | Rain* | Wind** | Luminosity | Snow |
|---|---|---|---|---|---|---|---|
| 1778309905 | 36.11° C | 46% | 976 hPa | - | - | 0 W/m² | - |
| 1778308656 | 36.67° C | 46% | 976 hPa | - | - | 0 W/m² | - |
| 1778308031 | 35.56° C | 48% | 976 hPa | - | - | 0 W/m² | - |
| 1778307407 | 35.56° C | 47% | 977 hPa | - | - | 0 W/m² | - |
| 1778306782 | 35.56° C | 47% | 977 hPa | - | - | 0 W/m² | - |
| 1778306158 | 36.67° C | 46% | 977 hPa | - | - | 0 W/m² | - |
| 1778304909 | 35° C | 48% | 977 hPa | - | - | 0 W/m² | - |
| 1778304284 | 35° C | 49% | 978 hPa | - | - | 0 W/m² | - |
| 1778303659 | 35° C | 50% | 978 hPa | - | - | 0 W/m² | - |
| 1778303034 | 35° C | 49% | 978 hPa | - | - | 0 W/m² | - |
| 1778302409 | 35° C | 50% | 978 hPa | - | - | 0 W/m² | - |
| 1778301783 | 35° C | 50% | 978 hPa | - | - | 0 W/m² | - |
| 1778301158 | 35.56° C | 49% | 978 hPa | - | - | 0 W/m² | - |
| 1778300534 | 35° C | 50% | 979 hPa | - | - | 0 W/m² | - |
| 1778299910 | 34.44° C | 52% | 979 hPa | - | - | 0 W/m² | - |
| 1778299285 | 35.56° C | 51% | 979 hPa | - | - | 0 W/m² | - |
| 1778298660 | 34.44° C | 53% | 979 hPa | - | - | 0 W/m² | - |
| 1778298036 | 35° C | 51% | 979 hPa | - | - | 0 W/m² | - |
| 1778297411 | 34.44° C | 54% | 979 hPa | - | - | 0 W/m² | - |
| 1778296786 | 33.89° C | 56% | 980 hPa | - | - | 0 W/m² | - |
| 1778296162 | 33.89° C | 57% | 980 hPa | - | - | 0 W/m² | - |
| 1778295537 | 32.22° C | 60% | 980 hPa | - | - | 0 W/m² | - |
| 1778294912 | 32.78° C | 61% | 980 hPa | - | - | 0 W/m² | - |
| 1778294287 | 32.22° C | 62% | 980 hPa | - | - | 0 W/m² | - |
| 1778293662 | 32.22° C | 62% | 980 hPa | - | - | 0 W/m² | - |
* Rain since midnight (hover to see other rain measurements)
** Current wind speed in m/s (hover to see current wind gust speed)